createdAt,value
2019-05-20T00:02:28.376Z,14.23
2019-05-20T00:04:58.542Z,14.14
2019-05-20T00:07:29.616Z,14.04
2019-05-20T00:10:00.634Z,14.03
2019-05-20T00:12:31.650Z,14.08
2019-05-20T00:15:03.856Z,14.06
2019-05-20T00:17:35.217Z,13.99
2019-05-20T00:20:07.673Z,13.90
2019-05-20T00:22:39.087Z,13.88
2019-05-20T00:25:10.093Z,13.81
2019-05-20T00:27:41.115Z,13.75
2019-05-20T00:30:12.451Z,13.64
2019-05-20T00:32:43.463Z,13.68
2019-05-20T00:35:14.645Z,13.81
2019-05-20T00:37:45.781Z,13.96
2019-05-20T00:40:17.095Z,13.92
2019-05-20T00:42:48.118Z,13.91
2019-05-20T00:45:19.142Z,13.88
2019-05-20T00:47:50.231Z,13.90
2019-05-20T00:50:21.242Z,13.91
2019-05-20T00:52:52.257Z,13.90
2019-05-20T00:55:28.332Z,14.09
2019-05-20T00:57:59.331Z,14.17
2019-05-20T01:00:30.823Z,14.27
2019-05-20T01:03:01.845Z,14.19
2019-05-20T01:05:32.928Z,14.08
2019-05-20T01:08:03.937Z,14.16
2019-05-20T01:10:34.950Z,14.15
2019-05-20T01:13:05.987Z,13.99
2019-05-20T01:15:36.999Z,13.82
2019-05-20T01:18:09.428Z,13.69
2019-05-20T01:20:40.455Z,13.65
2019-05-20T01:23:11.463Z,13.51
2019-05-20T01:25:43.811Z,13.54
2019-05-20T01:28:14.889Z,13.52
2019-05-20T01:30:45.903Z,13.61
2019-05-20T01:33:16.942Z,13.59
2019-05-20T01:35:47.945Z,13.75
2019-05-20T01:38:18.955Z,13.74
2019-05-20T01:40:49.959Z,13.75
2019-05-20T01:43:20.982Z,13.65
2019-05-20T01:45:51.912Z,13.48
2019-05-20T01:48:22.939Z,13.42
2019-05-20T01:50:53.940Z,13.41
2019-05-20T01:53:25.205Z,13.53
2019-05-20T01:55:56.223Z,13.40
2019-05-20T01:58:27.245Z,13.36
2019-05-20T02:00:58.350Z,13.32
2019-05-20T02:03:32.125Z,13.29
2019-05-20T02:06:02.264Z,13.41
2019-05-20T02:08:33.286Z,13.64
2019-05-20T02:11:04.515Z,13.38
2019-05-20T02:13:55.311Z,13.19
2019-05-20T02:16:28.044Z,13.06
2019-05-20T02:18:59.064Z,12.94
2019-05-20T02:21:29.997Z,12.93
2019-05-20T02:24:01.006Z,12.89
2019-05-20T02:26:32.014Z,12.86
2019-05-20T02:29:03.032Z,12.87
2019-05-20T02:31:34.112Z,12.87
2019-05-20T02:34:05.045Z,13.06
2019-05-20T02:36:36.131Z,13.26
2019-05-20T02:39:07.559Z,13.28
2019-05-20T02:41:38.578Z,13.13
2019-05-20T02:44:09.590Z,13.07
2019-05-20T02:46:40.541Z,13.11
2019-05-20T02:49:11.491Z,13.18
2019-05-20T02:51:42.545Z,13.18
2019-05-20T02:54:13.567Z,13.16
2019-05-20T02:56:44.579Z,13.11
2019-05-20T02:59:15.587Z,13.24
2019-05-20T03:01:46.603Z,13.40
2019-05-20T03:04:17.616Z,13.18
2019-05-20T03:06:48.635Z,13.13
2019-05-20T03:09:19.717Z,13.26
2019-05-20T03:11:50.745Z,13.20
2019-05-20T03:14:21.744Z,13.19
2019-05-20T03:16:52.690Z,13.19
2019-05-20T03:19:23.718Z,13.12
2019-05-20T03:21:54.818Z,13.10
2019-05-20T03:24:25.937Z,13.11
2019-05-20T03:26:57.032Z,13.13
2019-05-20T03:29:28.062Z,13.20
2019-05-20T03:31:59.090Z,13.22
2019-05-20T03:34:45.560Z,13.35
2019-05-20T03:37:02.978Z,13.31
2019-05-20T03:39:34.012Z,13.28
2019-05-20T03:42:05.032Z,13.36
2019-05-20T03:44:36.060Z,13.58
2019-05-20T03:47:06.976Z,13.48
2019-05-20T03:49:37.987Z,13.60
2019-05-20T03:52:09.080Z,13.64
2019-05-20T03:54:40.224Z,13.57
2019-05-20T03:57:11.382Z,13.60
2019-05-20T03:59:42.601Z,13.76
2019-05-20T04:02:14.794Z,13.89
2019-05-20T04:05:00.637Z,13.82
2019-05-20T04:07:18.822Z,13.97
2019-05-20T04:09:50.325Z,13.97
2019-05-20T04:12:21.504Z,13.95
2019-05-20T04:14:52.663Z,14.01
2019-05-20T04:17:23.823Z,13.94
2019-05-20T04:19:55.002Z,14.12
2019-05-20T04:22:26.198Z,14.39
2019-05-20T04:24:57.326Z,14.28
2019-05-20T04:27:28.924Z,14.34
2019-05-20T04:30:00.256Z,14.66
2019-05-20T04:32:32.248Z,14.78
2019-05-20T04:35:20.537Z,14.86
2019-05-20T04:37:37.290Z,14.97
2019-05-20T04:40:09.180Z,15.10
2019-05-20T04:42:43.213Z,15.05
2019-05-20T04:45:16.567Z,15.09
2019-05-20T04:47:47.736Z,15.57
2019-05-20T04:50:21.378Z,15.77
2019-05-20T04:52:55.323Z,15.72
2019-05-20T04:55:26.877Z,16.10
2019-05-20T04:58:00.471Z,16.40
2019-05-20T05:00:53.204Z,16.42
2019-05-20T05:03:24.552Z,16.62
2019-05-20T05:05:56.183Z,16.97
2019-05-20T05:08:27.328Z,17.49
2019-05-20T05:10:58.480Z,17.37
2019-05-20T05:13:31.404Z,17.74
2019-05-20T05:16:02.742Z,18.05
2019-05-20T05:18:33.837Z,18.06
2019-05-20T05:21:05.086Z,18.03
2019-05-20T05:23:36.203Z,18.09
2019-05-20T05:26:07.348Z,18.67
2019-05-20T05:28:38.542Z,18.85
2019-05-20T05:31:09.696Z,19.32
2019-05-20T05:33:40.853Z,19.92
2019-05-20T05:36:12.054Z,19.78
2019-05-20T05:38:43.701Z,20.13
2019-05-20T05:41:15.329Z,20.33
2019-05-20T05:43:46.477Z,20.24
2019-05-20T05:46:17.670Z,20.42
2019-05-20T05:48:49.967Z,20.53
2019-05-20T05:51:21.137Z,20.63
2019-05-20T05:53:52.605Z,20.64
2019-05-20T05:56:23.713Z,20.66
2019-05-20T05:58:54.879Z,20.67
2019-05-20T06:01:26.093Z,20.12
2019-05-20T06:03:57.256Z,20.25
2019-05-20T06:06:28.517Z,20.45
2019-05-20T06:08:59.665Z,20.21
2019-05-20T06:11:30.996Z,20.52
2019-05-20T06:14:02.095Z,20.32
2019-05-20T06:16:36.827Z,20.36
2019-05-20T06:19:07.129Z,20.68
2019-05-20T06:21:38.214Z,20.51
2019-05-20T06:24:09.497Z,20.51
2019-05-20T06:26:40.710Z,20.95
2019-05-20T06:29:11.881Z,21.05
2019-05-20T06:31:43.173Z,21.15
2019-05-20T06:34:14.665Z,21.18
2019-05-20T06:36:47.657Z,21.06
2019-05-20T06:39:19.046Z,21.20
2019-05-20T06:41:50.241Z,20.85
2019-05-20T06:44:21.370Z,20.89
2019-05-20T06:46:52.480Z,21.04
2019-05-20T06:49:23.574Z,21.10
2019-05-20T06:51:54.671Z,21.29
2019-05-20T06:54:25.795Z,21.41
2019-05-20T06:56:56.979Z,21.75
2019-05-20T06:59:28.118Z,22.04
2019-05-20T07:01:59.299Z,22.06
2019-05-20T07:04:30.655Z,22.09
2019-05-20T07:07:01.806Z,22.70
2019-05-20T07:09:34.317Z,22.59
2019-05-20T07:12:05.700Z,22.13
2019-05-20T07:14:36.926Z,22.82
2019-05-20T07:17:08.054Z,22.33
2019-05-20T07:19:39.199Z,22.47
2019-05-20T07:22:10.303Z,22.11
2019-05-20T07:24:41.625Z,22.14
2019-05-20T07:27:12.817Z,21.84
2019-05-20T07:29:43.940Z,21.73
2019-05-20T07:32:15.057Z,21.98
2019-05-20T07:34:46.171Z,22.26
2019-05-20T07:37:17.377Z,22.60
2019-05-20T07:39:48.490Z,22.53
2019-05-20T07:42:19.628Z,22.44
2019-05-20T07:44:50.753Z,22.58
2019-05-20T07:47:21.920Z,22.57
2019-05-20T07:49:53.561Z,22.60
2019-05-20T07:52:26.594Z,22.51
2019-05-20T07:54:58.618Z,22.60
2019-05-20T08:00:01.689Z,22.31
2019-05-20T08:02:33.809Z,22.77
2019-05-20T08:05:10.101Z,22.97
2019-05-20T08:07:52.066Z,22.62
2019-05-20T08:10:14.911Z,22.54
2019-05-20T08:12:46.249Z,22.51
2019-05-20T08:15:17.484Z,22.99
2019-05-20T08:17:50.036Z,22.90
2019-05-20T08:20:21.220Z,22.51
2019-05-20T08:22:52.990Z,22.78
2019-05-20T08:25:24.213Z,22.90
2019-05-20T08:27:55.348Z,22.89
2019-05-20T08:30:35.481Z,23.07
2019-05-20T08:33:07.016Z,23.48
2019-05-20T08:35:38.407Z,23.29
2019-05-20T08:38:10.950Z,23.54
2019-05-20T08:40:42.781Z,23.45
2019-05-20T08:43:13.939Z,23.28
2019-05-20T08:45:46.115Z,22.89
2019-05-20T08:48:17.256Z,22.95
2019-05-20T08:50:48.414Z,22.75
2019-05-20T08:53:20.854Z,22.69
2019-05-20T08:55:51.978Z,22.39
2019-05-20T08:58:23.049Z,22.77
2019-05-20T09:00:54.179Z,22.78
2019-05-20T09:03:30.335Z,22.42
2019-05-20T09:05:59.731Z,22.82
2019-05-20T09:08:30.939Z,22.97
2019-05-20T09:11:02.134Z,22.97
2019-05-20T09:13:33.296Z,22.78
2019-05-20T09:16:05.833Z,22.72
2019-05-20T09:18:36.951Z,22.80
2019-05-20T09:21:08.230Z,22.67
2019-05-20T09:23:39.616Z,22.94
2019-05-20T09:26:11.032Z,23.07
2019-05-20T09:28:42.519Z,22.49
2019-05-20T09:31:13.846Z,22.38
2019-05-20T09:33:45.041Z,22.28
2019-05-20T09:36:16.183Z,22.33
2019-05-20T09:38:48.247Z,22.63
2019-05-20T09:41:20.738Z,22.74
2019-05-20T09:43:53.966Z,22.44
2019-05-20T09:46:26.503Z,22.07
2019-05-20T09:48:57.847Z,22.07
2019-05-20T09:51:29.163Z,22.04
2019-05-20T09:54:00.807Z,22.11
2019-05-20T09:56:32.368Z,22.09
2019-05-20T09:59:03.891Z,21.95
2019-05-20T10:01:39.577Z,21.95
2019-05-20T10:04:09.579Z,22.02
2019-05-20T10:06:41.190Z,21.93
2019-05-20T10:09:14.314Z,22.10
2019-05-20T10:11:46.426Z,22.07
2019-05-20T10:14:17.781Z,22.16
2019-05-20T10:16:50.771Z,22.14
2019-05-20T10:19:22.726Z,21.95
2019-05-20T10:21:54.120Z,21.72
2019-05-20T10:24:25.954Z,21.78
2019-05-20T10:26:57.664Z,21.62
2019-05-20T10:29:29.472Z,21.78
2019-05-20T10:32:00.872Z,21.92
2019-05-20T10:34:32.171Z,21.73
2019-05-20T10:37:03.401Z,22.07
2019-05-20T10:39:34.522Z,22.22
2019-05-20T10:42:05.760Z,22.23
2019-05-20T10:44:41.772Z,22.25
2019-05-20T10:47:10.645Z,22.17
2019-05-20T10:49:41.763Z,22.53
2019-05-20T10:52:12.905Z,22.68
2019-05-20T10:54:44.220Z,23.14
2019-05-20T10:57:15.301Z,23.87
2019-05-20T10:59:46.693Z,23.97
2019-05-20T11:02:19.516Z,24.49
2019-05-20T11:04:51.119Z,25.13
2019-05-20T11:07:22.446Z,25.36
2019-05-20T11:09:54.445Z,25.15
2019-05-20T11:12:26.190Z,25.47
2019-05-20T11:14:57.587Z,25.44
2019-05-20T11:17:28.842Z,24.94
2019-05-20T11:20:00.040Z,24.72
2019-05-20T11:22:31.240Z,24.89
2019-05-20T11:25:02.581Z,24.98
2019-05-20T11:27:34.842Z,25.50
2019-05-20T11:30:12.413Z,25.39
2019-05-20T11:32:43.719Z,25.78
2019-05-20T11:35:15.607Z,25.85
2019-05-20T11:37:47.888Z,26.04
2019-05-20T11:40:19.198Z,26.40
2019-05-20T11:42:50.359Z,26.34
2019-05-20T11:45:21.576Z,26.71
2019-05-20T11:47:52.814Z,27.68
2019-05-20T11:50:24.114Z,28.00
2019-05-20T11:52:55.252Z,27.96
2019-05-20T11:55:26.406Z,28.88
2019-05-20T11:58:12.810Z,29.01
2019-05-20T12:00:30.664Z,28.82
2019-05-20T12:03:01.803Z,28.81
2019-05-20T12:05:32.954Z,29.40
2019-05-20T12:08:04.075Z,30.06
2019-05-20T12:10:35.185Z,30.73
2019-05-20T12:13:06.269Z,31.03
2019-05-20T12:15:37.416Z,31.10
2019-05-20T12:18:08.513Z,30.23
2019-05-20T12:20:39.904Z,28.94
2019-05-20T12:23:11.016Z,29.00
2019-05-20T12:25:42.174Z,28.96
2019-05-20T12:28:13.309Z,28.27
2019-05-20T12:30:44.577Z,28.65
2019-05-20T12:33:19.007Z,28.62
2019-05-20T12:35:48.647Z,28.53
2019-05-20T12:38:20.177Z,28.96
2019-05-20T12:40:51.321Z,29.00
2019-05-20T12:43:22.484Z,29.78
2019-05-20T12:45:53.626Z,29.48
2019-05-20T12:48:24.741Z,28.99
2019-05-20T12:50:55.876Z,28.90
2019-05-20T12:53:27.055Z,28.52
2019-05-20T12:55:58.190Z,27.99
2019-05-20T12:58:29.358Z,28.10
2019-05-20T13:01:00.426Z,28.79
2019-05-20T13:03:31.638Z,28.66
2019-05-20T13:06:02.707Z,28.75
2019-05-20T13:08:33.869Z,29.55
2019-05-20T13:11:04.982Z,29.54
2019-05-20T13:13:36.167Z,29.90
2019-05-20T13:16:07.318Z,29.67
2019-05-20T13:18:54.685Z,30.02
2019-05-20T13:21:11.450Z,31.18
2019-05-20T13:23:42.654Z,31.67
2019-05-20T13:26:13.778Z,32.79
2019-05-20T13:28:45.774Z,32.06
2019-05-20T13:31:16.911Z,31.67
2019-05-20T13:33:47.999Z,31.42
2019-05-20T13:36:19.121Z,30.50
2019-05-20T13:38:50.351Z,30.21
2019-05-20T13:41:21.531Z,29.87
2019-05-20T13:43:52.713Z,28.68
2019-05-20T13:46:23.828Z,28.22
2019-05-20T13:48:54.992Z,28.55
2019-05-20T13:51:26.124Z,28.08
2019-05-20T13:53:57.244Z,27.84
2019-05-20T13:56:28.685Z,27.98
2019-05-20T13:58:59.810Z,27.53
2019-05-20T14:01:31.070Z,28.02
2019-05-20T14:04:02.179Z,28.24
2019-05-20T14:06:33.332Z,28.44
2019-05-20T14:09:07.645Z,28.73
2019-05-20T14:11:38.760Z,29.36
2019-05-20T14:14:13.829Z,29.13
2019-05-20T14:16:42.732Z,29.12
2019-05-20T14:19:13.848Z,29.22
2019-05-20T14:21:44.961Z,29.30
2019-05-20T14:24:16.102Z,30.40
2019-05-20T14:26:48.246Z,29.87
2019-05-20T14:29:19.350Z,29.40
2019-05-20T14:31:50.565Z,29.91
2019-05-20T14:34:21.765Z,29.66
2019-05-20T14:36:53.194Z,29.66
2019-05-20T14:39:25.437Z,29.56
2019-05-20T14:41:56.622Z,28.59
2019-05-20T14:44:27.746Z,27.73
2019-05-20T14:46:58.915Z,26.72
2019-05-20T14:49:30.119Z,27.05
2019-05-20T14:52:01.250Z,27.98
2019-05-20T14:54:32.400Z,28.12
2019-05-20T14:57:03.595Z,29.12
2019-05-20T14:59:34.759Z,30.73
2019-05-20T15:02:05.966Z,30.56
2019-05-20T15:04:37.225Z,29.86
2019-05-20T15:07:08.533Z,29.77
2019-05-20T15:09:39.728Z,29.44
2019-05-20T15:12:10.840Z,28.77
2019-05-20T15:14:42.621Z,28.58
2019-05-20T15:17:14.053Z,30.06
2019-05-20T15:19:45.319Z,29.48
2019-05-20T15:22:16.468Z,28.70
2019-05-20T15:24:47.582Z,29.18
2019-05-20T15:27:18.706Z,29.18
2019-05-20T15:29:49.833Z,30.87
2019-05-20T15:32:21.025Z,31.10
2019-05-20T15:34:52.127Z,31.21
2019-05-20T15:37:23.245Z,30.42
2019-05-20T15:39:56.112Z,29.79
2019-05-20T15:42:28.326Z,29.79
2019-05-20T15:44:59.626Z,28.32
2019-05-20T15:47:30.920Z,28.23
2019-05-20T15:50:05.268Z,28.79
2019-05-20T15:52:36.033Z,28.07
2019-05-20T15:55:08.516Z,27.16
2019-05-20T15:57:40.545Z,29.48
2019-05-20T16:00:12.409Z,30.98
2019-05-20T16:02:43.945Z,32.11
2019-05-20T16:05:15.084Z,32.07
2019-05-20T16:07:46.266Z,32.32
2019-05-20T16:10:19.256Z,31.97
2019-05-20T16:12:51.155Z,32.63
2019-05-20T16:15:23.382Z,32.92
2019-05-20T16:17:55.105Z,32.92
2019-05-20T16:20:27.589Z,32.46
2019-05-20T16:22:58.965Z,32.63
2019-05-20T16:25:30.550Z,31.21
2019-05-20T16:28:01.970Z,30.23
2019-05-20T16:30:34.967Z,27.93
2019-05-20T16:33:08.027Z,29.54
2019-05-20T16:35:40.502Z,31.12
2019-05-20T16:38:11.901Z,33.00
2019-05-20T16:40:43.068Z,33.87
2019-05-20T16:43:16.315Z,34.50
2019-05-20T16:45:49.093Z,34.09
2019-05-20T16:48:20.668Z,34.06
2019-05-20T16:50:53.928Z,34.11
2019-05-20T16:53:27.709Z,34.34
2019-05-20T16:56:01.461Z,34.69
2019-05-20T16:58:32.677Z,34.83
2019-05-20T17:01:04.018Z,33.17
2019-05-20T17:03:35.502Z,31.72
2019-05-20T17:06:06.998Z,29.66
2019-05-20T17:08:38.251Z,31.11
2019-05-20T17:11:09.494Z,30.22
2019-05-20T17:13:40.589Z,31.35
2019-05-20T17:16:11.702Z,33.07
2019-05-20T17:18:42.854Z,32.97
2019-05-20T17:21:13.984Z,32.65
2019-05-20T17:23:45.280Z,33.46
2019-05-20T17:26:16.389Z,33.45
2019-05-20T17:28:47.540Z,34.22
2019-05-20T17:31:19.033Z,34.45
2019-05-20T17:33:50.396Z,34.72
2019-05-20T17:36:21.600Z,35.34
2019-05-20T17:38:52.904Z,35.38
2019-05-20T17:41:24.718Z,35.34
2019-05-20T17:43:56.286Z,35.04
2019-05-20T17:46:30.040Z,35.35
2019-05-20T17:49:01.904Z,34.10
2019-05-20T17:51:34.888Z,33.27
2019-05-20T17:54:09.075Z,32.28
2019-05-20T17:56:42.704Z,31.45
2019-05-20T17:59:17.283Z,30.58
2019-05-20T18:01:49.417Z,30.89
2019-05-20T18:04:20.739Z,30.88
2019-05-20T18:06:52.072Z,30.79
2019-05-20T18:09:24.818Z,30.87
2019-05-20T18:11:55.901Z,30.57
2019-05-20T18:14:27.047Z,28.62
2019-05-20T18:16:58.271Z,27.46
2019-05-20T18:19:33.419Z,26.33
2019-05-20T18:22:04.684Z,26.10
2019-05-20T18:24:35.878Z,25.89
2019-05-20T18:27:07.256Z,24.95
2019-05-20T18:29:38.396Z,24.05
2019-05-20T18:32:10.066Z,23.46
2019-05-20T18:34:41.264Z,23.08
2019-05-20T18:37:12.418Z,22.78
2019-05-20T18:39:43.681Z,22.43
2019-05-20T18:42:14.830Z,22.09
2019-05-20T18:44:46.060Z,21.74
2019-05-20T18:47:17.307Z,21.41
2019-05-20T18:49:48.477Z,21.13
2019-05-20T18:52:19.636Z,20.84
2019-05-20T18:54:50.817Z,20.61
2019-05-20T18:57:21.985Z,20.41
2019-05-20T18:59:54.175Z,20.18
2019-05-20T19:02:25.295Z,20.03
2019-05-20T19:04:56.454Z,19.79
2019-05-20T19:07:27.560Z,19.62
2019-05-20T19:09:58.637Z,19.39
2019-05-20T19:12:29.749Z,19.19
2019-05-20T19:15:00.871Z,18.93
